Terminal Aerodrome Forecast
Issued by NWS

Home | Current Version | Previous Version | Text Only | Print | Product List | Glossary On
Versions: 1 2 3 4 5 6 7 8 9 10 11 12 13 14 15 16 17
000
FTUS41 KPHI 011740
TAFMIV
TAF
KMIV 011740Z 0118/0218 25011KT P6SM BKN050
     FM020100 30003KT P6SM SCT050
     FM020600 VRB03KT P6SM SCT060
     FM021200 04005KT P6SM SCT040=

USA.gov is the U.S. government's official web portal to all federal, state and local government web resources and services.